Wendelin, Illinois
Current Conditions -  °F | °C
As of 10:15 PM on Sunday 25 Jan 2015 (Local Time) from KOLY Reporting Station
Overcast Overcast  
Wind Chill: 21°   Ceiling: 1200
Heat Index: 32°   Visibility: 10mi
Dew Point: 28°   Wind: 16mph
Humidity: 87%   Direction: 350°N
Pressure: 29.87"   Gusts: 22mph
Location:  38.9706°N, 88.1894°W
Report Text: KOLY 260415Z AUTO 35014G19KT 10SM OVC012 00/M02 A2987 RMK AO2
Loading
Personal Weather Stations






























Interactive Weather Map New forecast layout! Learn more

10-Day Weather Forecast

Advertisements
Track Severe Weather on mobile